AirNav   Pilot Hours Calculator
 
 1690 users online  

3D8 Bordner Airport
Bowling Green, Ohio, USA

GOING TO BOWLING GREEN?


FAA INFORMATION EFFECTIVE 26 JANUARY 2023

Location

FAA Identifier: 3D8
Lat/Long: 41-20-09.6000N 083-43-23.5000W
41-20.160000N 083-43.391667W
41.3360000,-83.7231944
(estimated)
Elevation: 690 ft. / 210 m (estimated)
From city: 4 miles SW of BOWLING GREEN, OH
Time zone: UTC -5 (UTC -4 during Daylight Saving Time)
Zip code: 43569

Airport Operations

Airport use: Open to the public
Activation date: 11/1960
Control tower: no
ARTCC: CLEVELAND CENTER
FSS: CLEVELAND FLIGHT SERVICE STATION
NOTAMs facility: CLE (NOTAM-D service available)
Attendance: IREG
Wind indicator: yes
Segmented circle: no
Lights: NSTD LIRL RWY 09/27 OTS INDEFLY.

Airport Communications

CTAF: 122.9
WX AWOS-3 at 1G0 (5 nm NE): 120.725 (419-354-1415)
WX ASOS at TOL (16 nm N): PHONE 419-865-6924
WX AWOS-3 at FZI (17 nm SE): 124.625 (419-436-0053)
WX ASOS at TDZ (17 nm NE): 121.575 (419-838-5034)
WX ASOS at FDY (20 nm S): 132.85 (419-427-8524)

Nearby radio navigation aids

VOR radial/distance  VOR name  Freq  Var
FBCr006/22.9FLAG CITY VORTAC108.2002W

 
NDB name  Hdg/Dist  Freq  Var  ID
TIFFIN307/27.126905WTII - .. ..
ADRIAN160/35.827806WADG .- -.. --.
PORT CLINTON261/40.042307WPCW .--. -.-. .--

Airport Services

Runway Information

Runway 9/27

Dimensions: 2623 x 30 ft. / 799 x 9 m
Surface: turf/gravel, in fair condition
GRASS GROWING INTO SOME OF THE ASPH.
LDG AREA TURF/GRVL & ASPH; WEST 550 FT TURF, THEN 800 FT TURF/ASPH, THEN 625 FT ASPH/GRVL, THEN EAST 675 FT TURF/ASPH.
Weight bearing capacity: 
Single wheel: 5.0
Runway edge lights: non-standard
NSTD LIRL DUE TO SOLAR LGTS.
RUNWAY 9  RUNWAY 27
Latitude: 41-20.164743N41-20.153838N
Longitude: 083-43.677917W083-43.105080W
Elevation: 684.5 ft.689.5 ft.
Traffic pattern: rightleft
Runway heading: 091 true271 true
Runway end identifier lights: nono
Obstructions: 29 ft. pline, marked, 48 ft. from runway, 1:1 slope to clear15 ft. crops, 45 ft. left and right of centerline

Airport Ownership and Management from official FAA records

Ownership: Privately-owned
Owner: BERNIE STEINBAUGH
16662 HODGMAN RD
WESTON, OH 43569-9723
Phone 419-353-4732
Manager: BERNIE STEINBAUGH
16662 HODGMAN RD
WESTON, OH 43569-9723
Phone 419-353-4732

Airport Operational Statistics

Aircraft based on the field: 3
Single engine airplanes: 3
    
Aircraft operations: 36/year *
67% transient general aviation
33% local general aviation
* for 12-month period ending 23 September 2022

Additional Remarks

NO STUDENT OPS.
FOR CD CTC TOLEDO APCH AT 419-865-1495.
CTC AMGR TO VFY FLD CONDS BFR ARR.

Instrument Procedures

There are no published instrument procedures at 3D8.

Some nearby airports with instrument procedures:

1G0 - Wood County Airport (5 nm NE)
KTOL - Eugene F Kranz Toledo Express Airport (16 nm N)
7W5 - Henry County Airport (16 nm W)
KFZI - Fostoria Metro Airport (17 nm SE)
KTDZ - Toledo Executive Airport (17 nm NE)
KFDY - Findlay Airport (20 nm S)
 
Loc | Ops | Rwys | IFR | FBO | Links
Com | Nav | Svcs | Stats | Notes
Area around 3D8 (Bordner Airport)
 
Road maps at: MapQuest Bing Google
 
Aerial photo
WARNING: Photo may not be current or correct
Aerial photo of 3D8 (Bordner Airport)
Do you have a better or more recent aerial photo of Bordner Airport that you would like to share? If so, please send us your photo.

 
Sectional chart

 
Airport distance calculator
Flying to Bordner Airport? Find the distance to fly.

From to 3D8

Sunrise and sunset
Times for 02-Feb-2023
 Local
(UTC-5)
 Zulu
(UTC)
Morning civil twilight07:1712:17
Sunrise07:4612:46
Sunset17:5122:51
Evening civil twilight18:2023:20

Current date and time
Zulu (UTC)  02-Feb-2023 19:08:20
Local (UTC-5)  02-Feb-2023 14:08:20
 
METAR
KTOL 
15nm N 
021852Z 22018G28KT 10SM CLR 02/M08 A2999 RMK AO2 PK WND 23028/1848 SLP163 T00171083
KTDZ 
18nm NE 
021853Z AUTO 23018G25KT 10SM CLR 02/M07 A2999 RMK AO2 PK WND 23027/1815 SLP163 T00221072
KFDY 
19nm S 
021853Z AUTO 22015G21KT 10SM CLR 03/M07 A3000 RMK AO2 PK WND 22026/1756 SLP166 T00331072
KOWX 
21nm SW 
021855Z AUTO 23017G24KT 10SM CLR 03/M08 A3002 RMK AO1
KDUH 
24nm N 
021855Z AUTO 23009G20KT 10SM CLR 02/M09 A2998 RMK AO2 T00161086
KUSE 
24nm NW 
021855Z AUTO 23017G26KT 10SM CLR 01/M08 A2998 RMK AO2
TAF
KTOL 
15nm N 
021127Z 0212/0312 22006KT P6SM SKC FM021800 25015G22KT P6SM SCT250 FM030000 30015G25KT P6SM BKN030 FM030700 32008KT P6SM SCT030
KFDY 
19nm S 
021739Z 0218/0318 23016KT P6SM SKC FM021900 25015G22KT P6SM SCT250 FM030100 30015G25KT P6SM BKN035 FM030300 33015KT P6SM SCT030 FM031600 30011KT P6SM BKN050
NOTAMs
Click for the latest NOTAMs
NOTAMs are issued by the DoD/FAA and will open in a separate window not controlled by AirNav.

 

 
 

Would you like to see your business listed on this page?

 If your business provides an interesting product or service to pilots, flight crews, aircraft, or users of the Bordner Airport, you should consider listing it here.  To start the listing process, click on the button below
 
Add a business
 

Other Pages about Bordner Airport

Update a link
 
Copyright © AirNav, LLC. All rights reserved. Privacy Policy  Contact